createdAt,value
2022-11-23T00:01:36.479Z,115.50
2022-11-23T00:04:12.316Z,114.20
2022-11-23T00:06:40.579Z,115.87
2022-11-23T00:09:10.351Z,115.20
2022-11-23T00:11:37.858Z,115.73
2022-11-23T00:14:04.890Z,115.57
2022-11-23T00:16:32.139Z,115.57
2022-11-23T00:19:01.598Z,115.67
2022-11-23T00:21:32.258Z,115.50
2022-11-23T00:23:59.628Z,115.47
2022-11-23T00:26:27.363Z,114.90
2022-11-23T00:28:54.718Z,115.50
2022-11-23T00:31:22.303Z,116.17
2022-11-23T00:33:56.084Z,115.83
2022-11-23T00:36:25.635Z,115.47
2022-11-23T00:38:57.519Z,115.67
2022-11-23T00:41:27.931Z,114.27
2022-11-23T00:43:55.235Z,114.80
2022-11-23T00:46:27.183Z,114.93
2022-11-23T00:48:57.105Z,115.20
2022-11-23T00:51:33.460Z,114.73
2022-11-23T00:54:02.361Z,115.97
2022-11-23T00:56:32.386Z,114.57
2022-11-23T00:59:01.780Z,114.07
2022-11-23T01:01:35.439Z,115.03
2022-11-23T01:04:06.701Z,115.67
2022-11-23T01:06:40.015Z,115.13
2022-11-23T01:09:18.892Z,115.77
2022-11-23T01:11:50.165Z,115.57
2022-11-23T01:14:17.329Z,114.10
2022-11-23T01:16:44.376Z,115.10
2022-11-23T01:19:16.865Z,113.87
2022-11-23T01:21:44.904Z,114.93
2022-11-23T01:24:22.644Z,115.13
2022-11-23T01:26:55.195Z,115.87
2022-11-23T01:29:23.956Z,115.57
2022-11-23T01:31:51.429Z,115.40
2022-11-23T01:34:18.765Z,115.47
2022-11-23T01:36:46.352Z,115.50
2022-11-23T01:39:13.830Z,115.13
2022-11-23T01:41:44.548Z,115.20
2022-11-23T01:44:35.009Z,115.10
2022-11-23T01:47:11.261Z,114.80
2022-11-23T01:49:47.810Z,115.30
2022-11-23T01:52:25.061Z,115.77
2022-11-23T01:54:57.209Z,114.77
2022-11-23T01:57:33.923Z,115.97
2022-11-23T02:00:01.937Z,115.57
2022-11-23T02:02:49.973Z,115.13
2022-11-23T02:05:21.486Z,114.57
2022-11-23T02:07:51.359Z,115.77
2022-11-23T02:10:19.491Z,115.10
2022-11-23T02:12:46.492Z,115.83
2022-11-23T02:15:13.635Z,115.50
2022-11-23T02:17:43.622Z,114.27
2022-11-23T02:20:15.422Z,115.40
2022-11-23T02:23:04.251Z,114.77
2022-11-23T02:25:45.550Z,115.50
2022-11-23T02:28:25.874Z,114.87
2022-11-23T02:30:55.713Z,115.00
2022-11-23T02:33:25.326Z,115.50
2022-11-23T02:36:02.726Z,115.50
2022-11-23T02:38:34.319Z,115.13
2022-11-23T02:41:01.544Z,115.60
2022-11-23T02:43:28.934Z,115.37
2022-11-23T02:46:04.575Z,115.30
2022-11-23T02:48:31.539Z,113.00
2022-11-23T02:50:58.498Z,115.07
2022-11-23T02:53:25.560Z,115.97
2022-11-23T02:55:54.451Z,115.13
2022-11-23T02:58:21.463Z,114.93
2022-11-23T03:00:48.489Z,115.40
2022-11-23T03:03:19.543Z,115.37
2022-11-23T03:05:46.552Z,115.47
2022-11-23T03:08:14.062Z,114.53
2022-11-23T03:10:41.776Z,115.57
2022-11-23T03:13:09.680Z,115.23
2022-11-23T03:15:38.625Z,115.57
2022-11-23T03:18:06.751Z,115.73
2022-11-23T03:20:34.612Z,114.70
2022-11-23T03:23:02.003Z,115.27
2022-11-23T03:25:29.136Z,114.97
2022-11-23T03:27:58.660Z,114.70
2022-11-23T03:30:26.285Z,115.37
2022-11-23T03:32:54.140Z,115.67
2022-11-23T03:35:21.517Z,115.53
2022-11-23T03:38:08.588Z,115.20
2022-11-23T03:40:36.005Z,115.57
2022-11-23T03:43:15.555Z,115.17
2022-11-23T03:45:43.537Z,115.20
2022-11-23T03:48:10.765Z,114.43
2022-11-23T03:50:37.769Z,115.43
2022-11-23T03:53:06.124Z,115.97
2022-11-23T03:55:34.384Z,115.00
2022-11-23T03:58:02.964Z,115.47
2022-11-23T04:00:34.850Z,115.67
2022-11-23T04:03:02.210Z,115.40
2022-11-23T04:06:07.440Z,115.57
2022-11-23T04:09:01.725Z,114.17
2022-11-23T04:11:59.036Z,115.27
2022-11-23T04:14:26.077Z,115.47
2022-11-23T04:16:53.112Z,115.17
2022-11-23T04:19:20.473Z,115.37
2022-11-23T04:21:47.874Z,115.67
2022-11-23T04:24:15.502Z,114.90
2022-11-23T04:26:43.615Z,115.37
2022-11-23T04:29:11.945Z,114.80
2022-11-23T04:31:46.224Z,115.47
2022-11-23T04:34:16.756Z,115.07
2022-11-23T04:36:43.752Z,115.23
2022-11-23T04:39:12.813Z,115.40
2022-11-23T04:41:56.753Z,115.20
2022-11-23T04:44:24.058Z,114.17
2022-11-23T04:46:58.096Z,115.47
2022-11-23T04:49:25.876Z,115.27
2022-11-23T04:51:54.212Z,114.30
2022-11-23T04:54:26.363Z,115.20
2022-11-23T04:56:58.153Z,114.50
2022-11-23T04:59:25.269Z,115.27
2022-11-23T05:01:53.052Z,114.83
2022-11-23T05:04:46.333Z,115.37
2022-11-23T05:07:14.560Z,115.57
2022-11-23T05:09:45.342Z,115.47
2022-11-23T05:12:16.242Z,115.20
2022-11-23T05:14:43.247Z,115.63
2022-11-23T05:17:11.857Z,114.80
2022-11-23T05:19:41.869Z,114.80
2022-11-23T05:22:09.077Z,115.10
2022-11-23T05:24:38.749Z,115.27
2022-11-23T05:27:10.755Z,115.17
2022-11-23T05:29:39.152Z,114.67
2022-11-23T05:32:07.890Z,116.00
2022-11-23T05:34:35.506Z,115.77
2022-11-23T05:37:04.461Z,115.40
2022-11-23T05:39:32.152Z,115.30
2022-11-23T05:42:01.198Z,114.27
2022-11-23T05:44:36.540Z,115.30
2022-11-23T05:47:05.858Z,115.10
2022-11-23T05:49:34.849Z,114.47
2022-11-23T05:52:04.518Z,114.90
2022-11-23T05:54:32.099Z,114.20
2022-11-23T05:57:07.789Z,114.27
2022-11-23T05:59:37.854Z,115.77
2022-11-23T06:02:05.729Z,115.07
2022-11-23T06:04:36.148Z,115.77
2022-11-23T06:07:05.459Z,115.10
2022-11-23T06:09:48.866Z,115.27
2022-11-23T06:12:16.702Z,113.67
2022-11-23T06:14:44.842Z,115.17
2022-11-23T06:17:14.734Z,115.27
2022-11-23T06:19:48.254Z,115.40
2022-11-23T06:22:15.647Z,114.33
2022-11-23T06:24:54.151Z,114.70
2022-11-23T06:27:36.346Z,115.00
2022-11-23T06:30:09.466Z,115.07
2022-11-23T06:32:37.519Z,114.27
2022-11-23T06:35:05.957Z,114.90
2022-11-23T06:37:36.638Z,113.73
2022-11-23T06:40:04.221Z,114.27
2022-11-23T06:42:38.977Z,113.97
2022-11-23T06:45:11.011Z,115.03
2022-11-23T06:47:38.791Z,115.37
2022-11-23T06:50:06.896Z,115.17
2022-11-23T06:52:33.937Z,114.93
2022-11-23T06:55:00.941Z,114.70
2022-11-23T06:57:28.063Z,115.30
2022-11-23T06:59:55.688Z,115.00
2022-11-23T07:02:29.661Z,114.70
2022-11-23T07:04:58.804Z,114.60
2022-11-23T07:07:27.601Z,114.87
2022-11-23T07:10:07.327Z,115.47
2022-11-23T07:12:44.236Z,115.07
2022-11-23T07:15:13.586Z,114.80
2022-11-23T07:17:42.018Z,115.07
2022-11-23T07:20:12.964Z,113.77
2022-11-23T07:22:40.588Z,112.47
2022-11-23T07:25:09.099Z,115.20
2022-11-23T07:27:36.051Z,114.10
2022-11-23T07:30:05.041Z,114.17
2022-11-23T07:32:32.470Z,114.27
2022-11-23T07:34:59.894Z,114.80
2022-11-23T07:37:28.755Z,114.90
2022-11-23T07:39:58.122Z,114.20
2022-11-23T07:42:35.711Z,115.27
2022-11-23T07:45:08.496Z,115.47
2022-11-23T07:47:38.828Z,114.40
2022-11-23T07:50:09.823Z,114.90
2022-11-23T07:52:39.084Z,114.87
2022-11-23T07:55:07.203Z,114.97
2022-11-23T07:57:34.797Z,113.17
2022-11-23T08:00:02.389Z,114.40
2022-11-23T08:02:57.768Z,115.17
2022-11-23T08:05:27.717Z,115.17
2022-11-23T08:08:02.419Z,114.50
2022-11-23T08:10:31.773Z,114.60
2022-11-23T08:13:06.177Z,115.37
2022-11-23T08:15:33.626Z,114.87
2022-11-23T08:18:04.886Z,113.10
2022-11-23T08:20:33.288Z,114.77
2022-11-23T08:23:00.309Z,113.87
2022-11-23T08:25:29.450Z,114.37
2022-11-23T08:28:03.801Z,114.63
2022-11-23T08:30:33.191Z,112.20
2022-11-23T08:33:04.765Z,115.03
2022-11-23T08:35:38.190Z,111.97
2022-11-23T08:38:08.250Z,114.77
2022-11-23T08:40:36.552Z,115.37
2022-11-23T08:43:04.939Z,113.20
2022-11-23T08:45:31.934Z,114.57
2022-11-23T08:48:03.850Z,115.37
2022-11-23T08:50:32.163Z,115.10
2022-11-23T08:53:00.681Z,114.13
2022-11-23T08:55:29.855Z,115.20
2022-11-23T08:57:58.612Z,115.17
2022-11-23T09:03:42.381Z,114.80
2022-11-23T09:06:10.614Z,115.17
2022-11-23T09:08:38.506Z,115.17
2022-11-23T09:11:13.794Z,115.10
2022-11-23T09:13:41.523Z,115.37
2022-11-23T09:16:09.631Z,114.73
2022-11-23T09:18:36.742Z,115.37
2022-11-23T09:21:06.177Z,115.47
2022-11-23T09:23:33.498Z,113.50
2022-11-23T09:26:02.533Z,113.17
2022-11-23T09:28:30.900Z,115.00
2022-11-23T09:30:58.023Z,115.77
2022-11-23T09:33:25.830Z,115.40
2022-11-23T09:36:02.717Z,115.93
2022-11-23T09:38:54.545Z,115.80
2022-11-23T09:41:44.738Z,112.97
2022-11-23T09:45:21.820Z,115.10
2022-11-23T09:48:25.740Z,114.27
2022-11-23T09:51:07.880Z,116.27
2022-11-23T09:53:56.915Z,115.23
2022-11-23T09:56:41.160Z,115.70
2022-11-23T09:59:41.349Z,115.60
2022-11-23T10:02:28.895Z,114.53
2022-11-23T10:04:59.971Z,116.77
2022-11-23T10:07:50.540Z,115.70
2022-11-23T10:10:59.217Z,112.73
2022-11-23T10:13:44.883Z,116.40
2022-11-23T10:17:05.075Z,116.60
2022-11-23T10:19:59.704Z,116.00
2022-11-23T10:22:31.192Z,116.73
2022-11-23T10:25:02.020Z,116.47
2022-11-23T10:27:30.216Z,116.50
2022-11-23T10:29:59.793Z,116.47
2022-11-23T10:32:44.440Z,116.57
2022-11-23T10:35:23.229Z,117.00
2022-11-23T10:37:53.503Z,117.07
2022-11-23T10:40:26.965Z,116.80
2022-11-23T10:43:04.804Z,117.20
2022-11-23T10:45:31.748Z,116.53
2022-11-23T10:48:00.558Z,117.67
2022-11-23T10:50:40.320Z,117.80
2022-11-23T10:53:09.928Z,118.57
2022-11-23T10:55:59.975Z,117.53
2022-11-23T10:58:35.009Z,118.83
2022-11-23T11:01:16.230Z,118.60
2022-11-23T11:03:43.293Z,119.10
2022-11-23T11:06:11.720Z,118.40
2022-11-23T11:09:02.623Z,117.90
2022-11-23T11:11:35.385Z,118.10
2022-11-23T11:14:42.129Z,116.73
2022-11-23T11:17:32.125Z,118.80
2022-11-23T11:20:24.396Z,118.10
2022-11-23T11:22:51.754Z,118.27
2022-11-23T11:25:36.978Z,118.80
2022-11-23T11:28:25.799Z,117.90
2022-11-23T11:31:26.541Z,117.97
2022-11-23T11:34:19.791Z,118.60
2022-11-23T11:37:44.643Z,118.60
2022-11-23T11:40:50.395Z,117.80
2022-11-23T11:43:46.806Z,118.47
2022-11-23T11:46:31.661Z,118.57
2022-11-23T11:49:13.348Z,118.10
2022-11-23T11:52:15.588Z,117.40
2022-11-23T11:55:43.274Z,117.93
2022-11-23T11:58:16.506Z,117.50
2022-11-23T12:00:47.611Z,117.80
2022-11-23T12:03:51.827Z,117.90
2022-11-23T12:06:37.192Z,117.77
2022-11-23T12:09:16.721Z,118.30
2022-11-23T12:11:44.014Z,117.70
2022-11-23T12:14:15.114Z,118.20
2022-11-23T12:17:32.051Z,117.70
2022-11-23T12:20:37.676Z,117.53
2022-11-23T12:23:53.003Z,117.90
2022-11-23T12:26:58.055Z,118.10
2022-11-23T12:30:36.291Z,118.07
2022-11-23T12:34:19.824Z,118.20
2022-11-23T12:37:40.057Z,117.70
2022-11-23T12:40:44.365Z,118.10
2022-11-23T12:43:36.824Z,117.60
2022-11-23T12:46:39.639Z,117.83
2022-11-23T12:49:51.897Z,118.37
2022-11-23T12:52:58.507Z,117.90
2022-11-23T12:55:49.002Z,118.20
2022-11-23T12:58:27.579Z,118.13
2022-11-23T13:01:16.372Z,118.10
2022-11-23T13:04:40.448Z,118.20
2022-11-23T13:07:54.223Z,117.90
2022-11-23T13:11:02.860Z,118.10
2022-11-23T13:14:23.111Z,117.67
2022-11-23T13:17:31.661Z,117.90
2022-11-23T13:20:30.635Z,118.30
2022-11-23T13:22:59.258Z,118.00
2022-11-23T13:25:29.689Z,117.90
2022-11-23T13:28:30.072Z,118.57
2022-11-23T13:31:31.834Z,117.80
2022-11-23T13:34:24.329Z,117.70
2022-11-23T13:37:17.326Z,117.77
2022-11-23T13:39:45.175Z,117.60
2022-11-23T13:42:12.881Z,118.10
2022-11-23T13:44:40.113Z,117.80
2022-11-23T13:47:15.808Z,118.00
2022-11-23T13:49:52.531Z,117.83
2022-11-23T13:52:24.109Z,118.07
2022-11-23T13:55:09.339Z,116.30
2022-11-23T13:58:25.429Z,118.00
2022-11-23T14:00:58.978Z,118.07
2022-11-23T14:03:53.916Z,119.27
2022-11-23T14:06:57.494Z,118.80
2022-11-23T14:09:42.656Z,119.60
2022-11-23T14:12:12.479Z,118.93
2022-11-23T14:15:18.750Z,119.17
2022-11-23T14:18:06.522Z,119.60
2022-11-23T14:21:18.058Z,119.07
2022-11-23T14:24:38.218Z,119.70
2022-11-23T14:27:51.594Z,119.60
2022-11-23T14:30:56.813Z,119.53
2022-11-23T14:33:53.058Z,119.80
2022-11-23T14:37:08.715Z,119.10
2022-11-23T14:40:27.343Z,119.10
2022-11-23T14:42:57.444Z,119.70
2022-11-23T14:45:31.605Z,120.13
2022-11-23T14:48:32.210Z,119.27
2022-11-23T14:51:06.151Z,119.40
2022-11-23T14:53:46.442Z,119.43
2022-11-23T14:56:47.398Z,119.30
2022-11-23T14:59:17.020Z,118.07
2022-11-23T15:02:04.097Z,119.17
2022-11-23T15:04:39.449Z,118.97
2022-11-23T15:07:20.100Z,119.10
2022-11-23T15:10:02.580Z,119.27
2022-11-23T15:12:46.659Z,118.77
2022-11-23T15:15:26.129Z,116.37
2022-11-23T15:18:00.222Z,119.10
2022-11-23T15:20:43.687Z,118.70
2022-11-23T15:23:26.343Z,118.67
2022-11-23T15:26:05.521Z,117.97
2022-11-23T15:28:36.899Z,118.47
2022-11-23T15:31:36.639Z,117.97
2022-11-23T15:34:16.084Z,118.70
2022-11-23T15:36:46.154Z,118.57
2022-11-23T15:39:23.945Z,118.60
2022-11-23T15:41:55.298Z,118.37
2022-11-23T15:44:29.958Z,117.40
2022-11-23T15:47:27.417Z,118.00
2022-11-23T15:50:08.827Z,118.23
2022-11-23T15:52:37.899Z,118.00
2022-11-23T15:55:10.019Z,116.30
2022-11-23T15:57:39.488Z,117.40
2022-11-23T16:00:10.060Z,118.27
2022-11-23T16:02:39.929Z,117.27
2022-11-23T16:05:23.408Z,117.57
2022-11-23T16:07:58.133Z,116.77
2022-11-23T16:10:28.791Z,116.80
2022-11-23T16:13:02.986Z,117.60
2022-11-23T16:15:40.741Z,116.77
2022-11-23T16:18:13.604Z,117.97
2022-11-23T16:20:48.847Z,117.70
2022-11-23T16:23:25.756Z,117.33
2022-11-23T16:26:01.671Z,117.20
2022-11-23T16:28:39.804Z,117.37
2022-11-23T16:31:06.994Z,116.47
2022-11-23T16:33:35.531Z,116.67
2022-11-23T16:36:02.949Z,117.20
2022-11-23T16:38:30.465Z,116.47
2022-11-23T16:40:57.881Z,116.20
2022-11-23T16:43:24.926Z,117.17
2022-11-23T16:45:51.982Z,116.17
2022-11-23T16:48:28.105Z,116.93
2022-11-23T16:50:57.368Z,115.50
2022-11-23T16:53:30.066Z,116.63
2022-11-23T16:56:00.721Z,117.10
2022-11-23T16:58:34.909Z,116.90
2022-11-23T17:01:05.070Z,117.10
2022-11-23T17:03:33.957Z,117.27
2022-11-23T17:06:01.324Z,116.97
2022-11-23T17:08:28.279Z,116.10
2022-11-23T17:10:56.925Z,116.80
2022-11-23T17:13:29.058Z,116.50
2022-11-23T17:15:56.680Z,116.80
2022-11-23T17:18:23.618Z,116.80
2022-11-23T17:20:50.704Z,116.10
2022-11-23T17:23:18.122Z,116.43
2022-11-23T17:25:45.307Z,116.67
2022-11-23T17:28:21.243Z,115.47
2022-11-23T17:30:49.102Z,116.60
2022-11-23T17:33:16.807Z,116.47
2022-11-23T17:35:44.338Z,116.30
2022-11-23T17:38:19.719Z,116.57
2022-11-23T17:40:46.834Z,116.60
2022-11-23T17:43:14.954Z,115.80
2022-11-23T17:45:44.577Z,116.23
2022-11-23T17:48:16.607Z,116.57
2022-11-23T17:50:43.710Z,116.47
2022-11-23T17:53:11.267Z,116.87
2022-11-23T17:55:38.916Z,116.50
2022-11-23T17:58:06.414Z,115.80
2022-11-23T18:00:35.167Z,116.50
2022-11-23T18:03:02.640Z,115.77
2022-11-23T18:05:29.969Z,116.20
2022-11-23T18:07:57.182Z,116.20
2022-11-23T18:10:24.914Z,115.30
2022-11-23T18:12:51.970Z,116.13
2022-11-23T18:15:18.936Z,116.30
2022-11-23T18:17:46.448Z,115.70
2022-11-23T18:20:13.896Z,115.47
2022-11-23T18:22:41.415Z,115.70
2022-11-23T18:25:09.267Z,115.30
2022-11-23T18:27:36.324Z,115.33
2022-11-23T18:30:04.350Z,116.07
2022-11-23T18:32:31.448Z,116.40
2022-11-23T18:34:58.399Z,115.10
2022-11-23T18:37:25.378Z,115.17
2022-11-23T18:39:52.345Z,115.80
2022-11-23T18:42:19.841Z,116.40
2022-11-23T18:44:46.880Z,116.37
2022-11-23T18:47:14.256Z,116.73
2022-11-23T18:49:41.606Z,116.40
2022-11-23T18:52:09.020Z,116.57
2022-11-23T18:54:35.969Z,116.10
2022-11-23T18:57:02.976Z,115.60
2022-11-23T18:59:58.677Z,115.60
2022-11-23T19:02:16.964Z,115.07
2022-11-23T19:04:44.372Z,116.13
2022-11-23T19:07:11.435Z,116.67
2022-11-23T19:09:38.556Z,116.10
2022-11-23T19:12:06.804Z,115.93
2022-11-23T19:14:33.857Z,115.73
2022-11-23T19:17:01.063Z,116.10
2022-11-23T19:19:28.593Z,115.43
2022-11-23T19:21:55.579Z,115.07
2022-11-23T19:24:22.629Z,116.37
2022-11-23T19:26:49.637Z,116.10
2022-11-23T19:29:18.670Z,115.80
2022-11-23T19:31:54.281Z,114.73
2022-11-23T19:34:21.976Z,116.67
2022-11-23T19:36:49.012Z,115.20
2022-11-23T19:39:16.432Z,115.57
2022-11-23T19:41:43.471Z,114.97
2022-11-23T19:44:10.981Z,115.50
2022-11-23T19:46:38.008Z,116.07
2022-11-23T19:49:05.041Z,116.17
2022-11-23T19:51:32.457Z,116.20
2022-11-23T19:54:01.517Z,114.67
2022-11-23T19:56:29.771Z,115.97
2022-11-23T19:59:01.405Z,116.37
2022-11-23T20:01:32.428Z,115.87
2022-11-23T20:04:08.581Z,115.50
2022-11-23T20:06:42.424Z,116.17
2022-11-23T20:09:16.902Z,115.93
2022-11-23T20:11:47.990Z,114.20
2022-11-23T20:14:18.019Z,116.10
2022-11-23T20:16:45.441Z,115.60
2022-11-23T20:19:12.466Z,115.90
2022-11-23T20:21:39.891Z,114.77
2022-11-23T20:24:12.454Z,116.07
2022-11-23T20:26:41.777Z,116.07
2022-11-23T20:29:09.270Z,115.67
2022-11-23T20:31:37.545Z,115.70
2022-11-23T20:34:07.751Z,115.57
2022-11-23T20:36:37.963Z,115.60
2022-11-23T20:39:10.445Z,116.13
2022-11-23T20:41:38.684Z,115.97
2022-11-23T20:44:14.142Z,114.97
2022-11-23T20:49:29.762Z,115.90
2022-11-23T20:51:56.879Z,115.50
2022-11-23T20:54:23.844Z,112.57
2022-11-23T20:56:50.779Z,116.23
2022-11-23T20:59:19.512Z,115.60
2022-11-23T21:01:46.990Z,115.50
2022-11-23T21:04:14.468Z,115.87
2022-11-23T21:06:41.499Z,115.70
2022-11-23T21:09:10.138Z,115.97
2022-11-23T21:11:56.258Z,116.17
2022-11-23T21:14:27.382Z,113.40
2022-11-23T21:16:59.361Z,116.03
2022-11-23T21:19:32.580Z,115.20
2022-11-23T21:22:11.543Z,116.57
2022-11-23T21:24:39.998Z,115.77
2022-11-23T21:27:12.363Z,116.07
2022-11-23T21:29:39.918Z,114.87
2022-11-23T21:32:06.906Z,113.70
2022-11-23T21:34:34.417Z,115.77
2022-11-23T21:37:01.640Z,115.90
2022-11-23T21:39:31.507Z,116.17
2022-11-23T21:41:58.821Z,114.67
2022-11-23T21:44:26.323Z,115.50
2022-11-23T21:46:53.874Z,116.07
2022-11-23T21:49:20.985Z,115.90
2022-11-23T21:51:48.582Z,115.40
2022-11-23T21:54:16.343Z,115.80
2022-11-23T21:56:45.960Z,114.47
2022-11-23T21:59:14.219Z,115.97
2022-11-23T22:01:42.370Z,115.70
2022-11-23T22:04:15.517Z,115.40
2022-11-23T22:06:45.002Z,115.50
2022-11-23T22:09:13.116Z,115.97
2022-11-23T22:11:43.313Z,116.13
2022-11-23T22:14:15.239Z,115.90
2022-11-23T22:16:46.060Z,115.53
2022-11-23T22:19:15.630Z,115.20
2022-11-23T22:21:45.253Z,114.90
2022-11-23T22:24:18.460Z,115.53
2022-11-23T22:26:47.421Z,114.27
2022-11-23T22:29:15.380Z,114.70
2022-11-23T22:31:43.474Z,115.67
2022-11-23T22:34:13.520Z,115.23
2022-11-23T22:36:41.401Z,116.07
2022-11-23T22:39:09.575Z,115.87
2022-11-23T22:41:37.443Z,115.97
2022-11-23T22:44:10.350Z,113.40
2022-11-23T22:46:39.291Z,115.00
2022-11-23T22:49:06.546Z,115.40
2022-11-23T22:51:33.983Z,115.50
2022-11-23T22:54:02.038Z,115.97
2022-11-23T22:56:31.212Z,115.47
2022-11-23T22:58:59.085Z,115.60
2022-11-23T23:01:30.257Z,114.90
2022-11-23T23:04:01.319Z,115.20
2022-11-23T23:06:34.373Z,114.67
2022-11-23T23:09:05.021Z,115.13
2022-11-23T23:11:34.713Z,115.97
2022-11-23T23:14:01.959Z,115.67
2022-11-23T23:16:29.924Z,115.47
2022-11-23T23:18:58.322Z,115.47
2022-11-23T23:21:27.533Z,115.00
2022-11-23T23:23:58.821Z,115.53
2022-11-23T23:26:28.363Z,115.13
2022-11-23T23:28:58.841Z,115.97
2022-11-23T23:31:27.566Z,115.97
2022-11-23T23:33:55.005Z,115.97
2022-11-23T23:36:24.285Z,115.03
2022-11-23T23:38:51.986Z,115.47
2022-11-23T23:41:19.637Z,115.00
2022-11-23T23:43:48.048Z,115.07
2022-11-23T23:46:15.428Z,115.30
2022-11-23T23:48:42.886Z,116.17
2022-11-23T23:51:18.211Z,115.67
2022-11-23T23:53:46.616Z,113.87
2022-11-23T23:56:17.785Z,112.00
2022-11-23T23:58:45.311Z,115.40
